PWSweather.com
Personal Weather Stations
Station Observations
KMILAPEE3
Lapeer Michigan, Lapeer, MI 48446

Lapeer MichiganLapeer, MI 48446

Lat: 43.057, Lon: -83.362

Elevation: 897

Station Type: Oregon Scientific WMR-968

Latest ConditionsUpdated 7:37:28 AM EST Wednesday, Mar 4, 2015
Currently Today's Max Today's Min Today's Average
Temperature 28.0°F-2.2°C 30.2°F-1.0°C 27.0°F-2.8°C 28.1°F-2.2°C
Dew Point 16.5°F-8.6°C 19.4°F-7.0°C 15.6°F-9.1°C 16.9°F-8.4°C
Winds 9.4 mph WSW15.1 kmh WSW 19.5 mph WNW31.4 kmh WNW - 8.6 mph 13.8 kmh
Wind Gusts 16.9 mph27.2 kmh 32.0 mph51.5 kmh - -
Humidity 61% 64% 61% 62%
Pressure 28.91 in979.0 mb 28.91 in979.0 mb 28.76 in973.9 mb -
Hour Temp Dew Point Humidity Winds Wind Gusts Pressure Precip Precip Rate Daily Precip Total
07:37 AM 28.0°F-2.2°C 16.5°F-8.6°C 61% 9.4 mph WSW15.1 kmh WSW 16.9 mph27.2 kmh 28.91 in979.0 mb 0.00 in0.0 mm 0.00 in/hr0.0 mm/hr 0.00 in0.0 mm
07:32 AM 27.9°F-2.3°C 16.4°F-8.7°C 61% 5.7 mph WSW9.2 kmh WSW 12.0 mph19.3 kmh 28.88 in978.0 mb 0.00 in0.0 mm 0.00 in/hr0.0 mm/hr 0.00 in0.0 mm
07:27 AM 27.9°F-2.3°C 16.4°F-8.7°C 61% 5.1 mph WSW8.2 kmh WSW 8.7 mph14.0 kmh 28.88 in978.0 mb 0.00 in0.0 mm 0.00 in/hr0.0 mm/hr 0.00 in0.0 mm
07:22 AM 27.9°F-2.3°C 16.4°F-8.7°C 61% 4.6 mph WSW7.4 kmh WSW 10.4 mph16.7 kmh 28.88 in978.0 mb 0.00 in0.0 mm 0.00 in/hr0.0 mm/hr 0.00 in0.0 mm
07:17 AM 27.9°F-2.3°C 16.4°F-8.7°C 61% 5.6 mph WSW9.0 kmh WSW 10.4 mph16.7 kmh 28.88 in978.0 mb 0.00 in0.0 mm 0.00 in/hr0.0 mm/hr 0.00 in0.0 mm
07:12 AM 27.9°F-2.3°C 16.4°F-8.7°C 61% 5.2 mph WSW8.4 kmh WSW 10.4 mph16.7 kmh 28.88 in978.0 mb 0.00 in0.0 mm 0.00 in/hr0.0 mm/hr 0.00 in0.0 mm
07:07 AM 27.9°F-2.3°C 16.3°F-8.7°C 61% 7.1 mph W11.4 kmh W 12.6 mph20.3 kmh 28.88 in978.0 mb 0.00 in0.0 mm 0.00 in/hr0.0 mm/hr 0.00 in0.0 mm
07:01 AM 27.9°F-2.3°C 16.8°F-8.4°C 62% 8.2 mph W13.2 kmh W 12.6 mph20.3 kmh 28.88 in978.0 mb 0.00 in0.0 mm 0.00 in/hr0.0 mm/hr 0.00 in0.0 mm
06:56 AM 27.9°F-2.3°C 16.8°F-8.4°C 62% 7.6 mph WSW12.2 kmh WSW 14.4 mph23.2 kmh 28.88 in978.0 mb 0.00 in0.0 mm 0.00 in/hr0.0 mm/hr 0.00 in0.0 mm
06:51 AM 27.9°F-2.3°C 16.8°F-8.4°C 62% 5.7 mph WSW9.2 kmh WSW 14.4 mph23.2 kmh 28.88 in978.0 mb 0.00 in0.0 mm 0.00 in/hr0.0 mm/hr 0.00 in0.0 mm
06:46 AM 27.9°F-2.3°C 16.7°F-8.5°C 62% 7.5 mph W12.1 kmh W 12.0 mph19.3 kmh 28.88 in978.0 mb 0.00 in0.0 mm 0.00 in/hr0.0 mm/hr 0.00 in0.0 mm
06:41 AM 27.9°F-2.3°C 16.7°F-8.5°C 62% 7.1 mph W11.4 kmh W 16.9 mph27.2 kmh 28.88 in978.0 mb 0.00 in0.0 mm 0.00 in/hr0.0 mm/hr 0.00 in0.0 mm
06:36 AM 27.9°F-2.3°C 16.7°F-8.5°C 62% 10.1 mph W16.3 kmh W 16.9 mph27.2 kmh 28.88 in978.0 mb 0.00 in0.0 mm 0.00 in/hr0.0 mm/hr 0.00 in0.0 mm
06:31 AM 27.9°F-2.3°C 16.7°F-8.5°C 62% 9.5 mph W15.3 kmh W 15.7 mph25.3 kmh 28.88 in978.0 mb 0.00 in0.0 mm 0.00 in/hr0.0 mm/hr 0.00 in0.0 mm
06:26 AM 27.9°F-2.3°C 16.7°F-8.5°C 62% 8.8 mph W14.2 kmh W 14.4 mph23.2 kmh 28.88 in978.0 mb 0.00 in0.0 mm 0.00 in/hr0.0 mm/hr 0.00 in0.0 mm
06:21 AM 27.9°F-2.3°C 17.2°F-8.2°C 64% 8.9 mph WSW14.3 kmh WSW 14.4 mph23.2 kmh 28.88 in978.0 mb 0.00 in0.0 mm 0.00 in/hr0.0 mm/hr 0.00 in0.0 mm
06:16 AM 27.9°F-2.3°C 17.2°F-8.2°C 64% 7.7 mph WSW12.4 kmh WSW 14.4 mph23.2 kmh 28.88 in978.0 mb 0.00 in0.0 mm 0.00 in/hr0.0 mm/hr 0.00 in0.0 mm
06:11 AM 27.9°F-2.3°C 17.2°F-8.2°C 64% 6.7 mph WSW10.8 kmh WSW 15.1 mph24.3 kmh 28.88 in978.0 mb 0.00 in0.0 mm 0.00 in/hr0.0 mm/hr 0.00 in0.0 mm
06:06 AM 27.9°F-2.3°C 17.2°F-8.2°C 64% 6.9 mph WSW11.1 kmh WSW 16.9 mph27.2 kmh 28.88 in978.0 mb 0.00 in0.0 mm 0.00 in/hr0.0 mm/hr 0.00 in0.0 mm
06:01 AM 27.9°F-2.3°C 17.2°F-8.2°C 64% 4.6 mph WSW7.4 kmh WSW 16.9 mph27.2 kmh 28.85 in977.0 mb 0.00 in0.0 mm 0.00 in/hr0.0 mm/hr 0.00 in0.0 mm
05:55 AM 27.9°F-2.3°C 17.2°F-8.2°C 64% 6.3 mph W10.1 kmh W 11.4 mph18.3 kmh 28.85 in977.0 mb 0.00 in0.0 mm 0.00 in/hr0.0 mm/hr 0.00 in0.0 mm
05:50 AM 27.9°F-2.3°C 17.2°F-8.2°C 64% 6.1 mph W9.8 kmh W 13.9 mph22.4 kmh 28.85 in977.0 mb 0.00 in0.0 mm 0.00 in/hr0.0 mm/hr 0.00 in0.0 mm
05:45 AM 27.9°F-2.3°C 17.2°F-8.2°C 64% 6.0 mph WSW9.7 kmh WSW 13.9 mph22.4 kmh 28.85 in977.0 mb 0.00 in0.0 mm 0.00 in/hr0.0 mm/hr 0.00 in0.0 mm
05:40 AM 27.9°F-2.3°C 17.2°F-8.2°C 64% 5.9 mph WSW9.5 kmh WSW 11.4 mph18.3 kmh 28.85 in977.0 mb 0.00 in0.0 mm 0.00 in/hr0.0 mm/hr 0.00 in0.0 mm
05:35 AM 27.7°F-2.4°C 17.1°F-8.3°C 64% 7.2 mph WSW11.6 kmh WSW 11.4 mph18.3 kmh 28.85 in977.0 mb 0.00 in0.0 mm 0.00 in/hr0.0 mm/hr 0.00 in0.0 mm
05:30 AM 27.7°F-2.4°C 17.1°F-8.3°C 64% 6.3 mph WSW10.1 kmh WSW 11.1 mph17.9 kmh 28.85 in977.0 mb 0.00 in0.0 mm 0.00 in/hr0.0 mm/hr 0.00 in0.0 mm
05:25 AM 27.7°F-2.4°C 16.7°F-8.5°C 63% 5.9 mph WSW9.5 kmh WSW 8.7 mph14.0 kmh 28.85 in977.0 mb 0.00 in0.0 mm 0.00 in/hr0.0 mm/hr 0.00 in0.0 mm
05:20 AM 27.7°F-2.4°C 16.7°F-8.5°C 63% 4.3 mph WSW6.9 kmh WSW 8.0 mph12.9 kmh 28.85 in977.0 mb 0.00 in0.0 mm 0.00 in/hr0.0 mm/hr 0.00 in0.0 mm
05:15 AM 27.7°F-2.4°C 16.7°F-8.5°C 63% 4.9 mph WSW7.9 kmh WSW 10.4 mph16.7 kmh 28.85 in977.0 mb 0.00 in0.0 mm 0.00 in/hr0.0 mm/hr 0.00 in0.0 mm
05:10 AM 27.7°F-2.4°C 16.7°F-8.5°C 63% 5.2 mph SW8.4 kmh SW 11.1 mph17.9 kmh 28.85 in977.0 mb 0.00 in0.0 mm 0.00 in/hr0.0 mm/hr 0.00 in0.0 mm
05:05 AM 27.7°F-2.4°C 16.7°F-8.5°C 63% 5.6 mph WSW9.0 kmh WSW 12.0 mph19.3 kmh 28.85 in977.0 mb 0.00 in0.0 mm 0.00 in/hr0.0 mm/hr 0.00 in0.0 mm
05:00 AM 27.5°F-2.5°C 16.5°F-8.6°C 63% 6.3 mph SW10.1 kmh SW 12.0 mph19.3 kmh 28.85 in977.0 mb 0.00 in0.0 mm 0.00 in/hr0.0 mm/hr 0.00 in0.0 mm
04:55 AM 27.5°F-2.5°C 16.5°F-8.6°C 63% 6.7 mph SW10.8 kmh SW 11.4 mph18.3 kmh 28.85 in977.0 mb 0.00 in0.0 mm 0.00 in/hr0.0 mm/hr 0.00 in0.0 mm
04:50 AM 27.5°F-2.5°C 16.5°F-8.6°C 63% 4.7 mph SW7.6 kmh SW 8.7 mph14.0 kmh 28.85 in977.0 mb 0.00 in0.0 mm 0.00 in/hr0.0 mm/hr 0.00 in0.0 mm
04:45 AM 27.5°F-2.5°C 16.5°F-8.6°C 63% 4.8 mph SW7.7 kmh SW 8.7 mph14.0 kmh 28.85 in977.0 mb 0.00 in0.0 mm 0.00 in/hr0.0 mm/hr 0.00 in0.0 mm
04:40 AM 27.5°F-2.5°C 16.5°F-8.6°C 63% 4.5 mph WSW7.2 kmh WSW 11.1 mph17.9 kmh 28.85 in977.0 mb 0.00 in0.0 mm 0.00 in/hr0.0 mm/hr 0.00 in0.0 mm
04:35 AM 27.5°F-2.5°C 16.6°F-8.6°C 63% 5.7 mph WSW9.2 kmh WSW 11.1 mph17.9 kmh 28.85 in977.0 mb 0.00 in0.0 mm 0.00 in/hr0.0 mm/hr 0.00 in0.0 mm
04:30 AM 27.5°F-2.5°C 16.6°F-8.6°C 63% 5.7 mph WSW9.2 kmh WSW 15.1 mph24.3 kmh 28.82 in976.0 mb 0.00 in0.0 mm 0.00 in/hr0.0 mm/hr 0.00 in0.0 mm
04:24 AM 27.7°F-2.4°C 16.8°F-8.4°C 63% 7.8 mph SW12.6 kmh SW 15.1 mph24.3 kmh 28.82 in976.0 mb 0.00 in0.0 mm 0.00 in/hr0.0 mm/hr 0.00 in0.0 mm
04:19 AM 27.7°F-2.4°C 16.8°F-8.4°C 63% 5.4 mph SW8.7 kmh SW 11.1 mph17.9 kmh 28.82 in976.0 mb 0.00 in0.0 mm 0.00 in/hr0.0 mm/hr 0.00 in0.0 mm
04:14 AM 27.7°F-2.4°C 16.8°F-8.4°C 63% 4.7 mph WSW7.6 kmh WSW 11.1 mph17.9 kmh 28.82 in976.0 mb 0.00 in0.0 mm 0.00 in/hr0.0 mm/hr 0.00 in0.0 mm
04:09 AM 27.7°F-2.4°C 16.8°F-8.4°C 63% 5.4 mph WSW8.7 kmh WSW 12.0 mph19.3 kmh 28.82 in976.0 mb 0.00 in0.0 mm 0.00 in/hr0.0 mm/hr 0.00 in0.0 mm
04:04 AM 27.7°F-2.4°C 16.8°F-8.4°C 63% 7.0 mph WSW11.3 kmh WSW 12.0 mph19.3 kmh 28.82 in976.0 mb 0.00 in0.0 mm 0.00 in/hr0.0 mm/hr 0.00 in0.0 mm
03:59 AM 27.7°F-2.4°C 16.4°F-8.7°C 62% 6.6 mph WSW10.6 kmh WSW 12.0 mph19.3 kmh 28.82 in976.0 mb 0.00 in0.0 mm 0.00 in/hr0.0 mm/hr 0.00 in0.0 mm
03:54 AM 27.5°F-2.5°C 16.2°F-8.8°C 62% 5.3 mph WSW8.5 kmh WSW 14.4 mph23.2 kmh 28.82 in976.0 mb 0.00 in0.0 mm 0.00 in/hr0.0 mm/hr 0.00 in0.0 mm
03:49 AM 27.5°F-2.5°C 16.2°F-8.8°C 62% 5.8 mph WSW9.3 kmh WSW 14.4 mph23.2 kmh 28.82 in976.0 mb 0.00 in0.0 mm 0.00 in/hr0.0 mm/hr 0.00 in0.0 mm
03:44 AM 27.3°F-2.6°C 16.0°F-8.9°C 62% 7.1 mph WSW11.4 kmh WSW 13.9 mph22.4 kmh 28.82 in976.0 mb 0.00 in0.0 mm 0.00 in/hr0.0 mm/hr 0.00 in0.0 mm
03:38 AM 27.1°F-2.7°C 15.8°F-9.0°C 62% 5.6 mph WSW9.0 kmh WSW 13.9 mph22.4 kmh 28.82 in976.0 mb 0.00 in0.0 mm 0.00 in/hr0.0 mm/hr 0.00 in0.0 mm
03:33 AM 27.1°F-2.7°C 15.8°F-9.0°C 62% 6.8 mph WSW10.9 kmh WSW 13.2 mph21.2 kmh 28.82 in976.0 mb 0.00 in0.0 mm 0.00 in/hr0.0 mm/hr 0.00 in0.0 mm
03:28 AM 27.0°F-2.8°C 15.8°F-9.0°C 62% 6.0 mph WSW9.7 kmh WSW 12.0 mph19.3 kmh 28.82 in976.0 mb 0.00 in0.0 mm 0.00 in/hr0.0 mm/hr 0.00 in0.0 mm
03:20 AM 27.0°F-2.8°C 15.8°F-9.0°C 62% 6.7 mph WSW10.8 kmh WSW 11.4 mph18.3 kmh 28.82 in976.0 mb 0.00 in0.0 mm 0.00 in/hr0.0 mm/hr 0.00 in0.0 mm
03:15 AM 27.0°F-2.8°C 15.8°F-9.0°C 62% 6.7 mph WSW10.8 kmh WSW 11.1 mph17.9 kmh 28.82 in976.0 mb 0.00 in0.0 mm 0.00 in/hr0.0 mm/hr 0.00 in0.0 mm
03:10 AM 27.0°F-2.8°C 15.8°F-9.0°C 62% 6.8 mph WSW10.9 kmh WSW 12.0 mph19.3 kmh 28.82 in976.0 mb 0.00 in0.0 mm 0.00 in/hr0.0 mm/hr 0.00 in0.0 mm
03:05 AM 27.0°F-2.8°C 15.8°F-9.0°C 62% 7.7 mph WSW12.4 kmh WSW 14.4 mph23.2 kmh 28.82 in976.0 mb 0.00 in0.0 mm 0.00 in/hr0.0 mm/hr 0.00 in0.0 mm
03:00 AM 27.1°F-2.7°C 15.9°F-8.9°C 62% 6.3 mph WSW10.1 kmh WSW 14.4 mph23.2 kmh 28.82 in976.0 mb 0.00 in0.0 mm 0.00 in/hr0.0 mm/hr 0.00 in0.0 mm
02:55 AM 27.3°F-2.6°C 15.6°F-9.1°C 61% 8.0 mph WSW12.9 kmh WSW 14.4 mph23.2 kmh 28.82 in976.0 mb 0.00 in0.0 mm 0.00 in/hr0.0 mm/hr 0.00 in0.0 mm
02:50 AM 27.5°F-2.5°C 16.3°F-8.7°C 62% 8.1 mph WSW13.0 kmh WSW 14.4 mph23.2 kmh 28.82 in976.0 mb 0.00 in0.0 mm 0.00 in/hr0.0 mm/hr 0.00 in0.0 mm
02:45 AM 27.5°F-2.5°C 16.3°F-8.7°C 62% 6.3 mph W10.1 kmh W 18.1 mph29.1 kmh 28.82 in976.0 mb 0.00 in0.0 mm 0.00 in/hr0.0 mm/hr 0.00 in0.0 mm
02:39 AM 27.7°F-2.4°C 16.5°F-8.6°C 62% 10.3 mph W16.6 kmh W 18.1 mph29.1 kmh 28.82 in976.0 mb 0.00 in0.0 mm 0.00 in/hr0.0 mm/hr 0.00 in0.0 mm
02:34 AM 27.9°F-2.3°C 16.7°F-8.5°C 62% 8.4 mph W13.5 kmh W 17.6 mph28.3 kmh 28.82 in976.0 mb 0.00 in0.0 mm 0.00 in/hr0.0 mm/hr 0.00 in0.0 mm
02:29 AM 28.0°F-2.2°C 16.8°F-8.4°C 62% 8.8 mph W14.2 kmh W 21.2 mph34.1 kmh 28.82 in976.0 mb 0.00 in0.0 mm 0.00 in/hr0.0 mm/hr 0.00 in0.0 mm
02:24 AM 28.2°F-2.1°C 17.0°F-8.3°C 62% 10.5 mph W16.9 kmh W 21.2 mph34.1 kmh 28.82 in976.0 mb 0.00 in0.0 mm 0.00 in/hr0.0 mm/hr 0.00 in0.0 mm
02:19 AM 28.2°F-2.1°C 17.0°F-8.3°C 62% 9.6 mph W15.4 kmh W 21.2 mph34.1 kmh 28.82 in976.0 mb 0.00 in0.0 mm 0.00 in/hr0.0 mm/hr 0.00 in0.0 mm
02:14 AM 28.4°F-2.0°C 17.2°F-8.2°C 62% 10.8 mph W17.4 kmh W 18.1 mph29.1 kmh 28.82 in976.0 mb 0.00 in0.0 mm 0.00 in/hr0.0 mm/hr 0.00 in0.0 mm
02:09 AM 28.4°F-2.0°C 17.2°F-8.2°C 62% 9.3 mph W15.0 kmh W 21.2 mph34.1 kmh 28.82 in976.0 mb 0.00 in0.0 mm 0.00 in/hr0.0 mm/hr 0.00 in0.0 mm
02:04 AM 28.6°F-1.9°C 17.4°F-8.1°C 62% 12.1 mph W19.5 kmh W 21.2 mph34.1 kmh 28.82 in976.0 mb 0.00 in0.0 mm 0.00 in/hr0.0 mm/hr 0.00 in0.0 mm
01:59 AM 28.6°F-1.9°C 17.4°F-8.1°C 62% 12.4 mph W20.0 kmh W 18.1 mph29.1 kmh 28.82 in976.0 mb 0.00 in0.0 mm 0.00 in/hr0.0 mm/hr 0.00 in0.0 mm
01:54 AM 28.8°F-1.8°C 17.6°F-8.0°C 62% 8.9 mph W14.3 kmh W 20.6 mph33.2 kmh 28.82 in976.0 mb 0.00 in0.0 mm 0.00 in/hr0.0 mm/hr 0.00 in0.0 mm
01:49 AM 28.8°F-1.8°C 17.1°F-8.3°C 61% 11.6 mph W18.7 kmh W 20.6 mph33.2 kmh 28.79 in974.9 mb 0.00 in0.0 mm 0.00 in/hr0.0 mm/hr 0.00 in0.0 mm
01:44 AM 28.8°F-1.8°C 17.1°F-8.3°C 61% 12.0 mph W19.3 kmh W 23.1 mph37.2 kmh 28.79 in974.9 mb 0.00 in0.0 mm 0.00 in/hr0.0 mm/hr 0.00 in0.0 mm
01:39 AM 28.8°F-1.8°C 17.1°F-8.3°C 61% 14.6 mph WNW23.5 kmh WNW 23.1 mph37.2 kmh 28.79 in974.9 mb 0.00 in0.0 mm 0.00 in/hr0.0 mm/hr 0.00 in0.0 mm
01:34 AM 28.9°F-1.7°C 17.7°F-7.9°C 62% 13.9 mph W22.4 kmh W 21.2 mph34.1 kmh 28.79 in974.9 mb 0.00 in0.0 mm 0.00 in/hr0.0 mm/hr 0.00 in0.0 mm
01:28 AM 28.9°F-1.7°C 17.3°F-8.2°C 61% 12.2 mph WNW19.6 kmh WNW 21.9 mph35.2 kmh 28.79 in974.9 mb 0.00 in0.0 mm 0.00 in/hr0.0 mm/hr 0.00 in0.0 mm
01:23 AM 28.9°F-1.7°C 17.3°F-8.2°C 61% 14.0 mph W22.5 kmh W 21.9 mph35.2 kmh 28.79 in974.9 mb 0.00 in0.0 mm 0.00 in/hr0.0 mm/hr 0.00 in0.0 mm
01:18 AM 29.1°F-1.6°C 17.4°F-8.1°C 61% 14.4 mph WNW23.2 kmh WNW 23.9 mph38.5 kmh 28.79 in974.9 mb 0.00 in0.0 mm 0.00 in/hr0.0 mm/hr 0.00 in0.0 mm
01:13 AM 29.1°F-1.6°C 17.5°F-8.1°C 61% 17.8 mph WNW28.6 kmh WNW 23.9 mph38.5 kmh 28.79 in974.9 mb 0.00 in0.0 mm 0.00 in/hr0.0 mm/hr 0.00 in0.0 mm
01:08 AM 29.1°F-1.6°C 17.5°F-8.1°C 61% 10.8 mph W17.4 kmh W 21.2 mph34.1 kmh 28.79 in974.9 mb 0.00 in0.0 mm 0.00 in/hr0.0 mm/hr 0.00 in0.0 mm
01:03 AM 29.3°F-1.5°C 17.6°F-8.0°C 61% 8.3 mph W13.4 kmh W 20.6 mph33.2 kmh 28.79 in974.9 mb 0.00 in0.0 mm 0.00 in/hr0.0 mm/hr 0.00 in0.0 mm
12:58 AM 29.3°F-1.5°C 17.7°F-7.9°C 61% 9.8 mph W15.8 kmh W 20.6 mph33.2 kmh 28.79 in974.9 mb 0.00 in0.0 mm 0.00 in/hr0.0 mm/hr 0.00 in0.0 mm
12:53 AM 29.3°F-1.5°C 17.7°F-7.9°C 61% 12.6 mph WNW20.3 kmh WNW 19.9 mph32.0 kmh 28.79 in974.9 mb 0.00 in0.0 mm 0.00 in/hr0.0 mm/hr 0.00 in0.0 mm
12:48 AM 29.3°F-1.5°C 17.7°F-7.9°C 61% 12.4 mph WNW20.0 kmh WNW 19.9 mph32.0 kmh 28.79 in974.9 mb 0.00 in0.0 mm 0.00 in/hr0.0 mm/hr 0.00 in0.0 mm
12:43 AM 29.5°F-1.4°C 17.9°F-7.8°C 61% 12.8 mph WNW20.6 kmh WNW 20.6 mph33.2 kmh 28.79 in974.9 mb 0.00 in0.0 mm 0.00 in/hr0.0 mm/hr 0.00 in0.0 mm
12:38 AM 29.5°F-1.4°C 17.9°F-7.8°C 61% 13.5 mph WNW21.7 kmh WNW 24.6 mph39.6 kmh 28.79 in974.9 mb 0.00 in0.0 mm 0.00 in/hr0.0 mm/hr 0.00 in0.0 mm
12:33 AM 29.5°F-1.4°C 17.9°F-7.8°C 61% 14.8 mph WNW23.8 kmh WNW 24.6 mph39.6 kmh 28.79 in974.9 mb 0.00 in0.0 mm 0.00 in/hr0.0 mm/hr 0.00 in0.0 mm
12:28 AM 29.7°F-1.3°C 18.5°F-7.5°C 63% 15.2 mph WNW24.5 kmh WNW 27.6 mph44.4 kmh 28.79 in974.9 mb 0.00 in0.0 mm 0.00 in/hr0.0 mm/hr 0.00 in0.0 mm
12:23 AM 29.7°F-1.3°C 18.5°F-7.5°C 63% 17.6 mph WNW28.3 kmh WNW 27.6 mph44.4 kmh 28.79 in974.9 mb 0.00 in0.0 mm 0.00 in/hr0.0 mm/hr 0.00 in0.0 mm
12:18 AM 29.8°F-1.2°C 18.6°F-7.4°C 63% 11.9 mph WNW19.2 kmh WNW 25.2 mph40.6 kmh 28.76 in973.9 mb 0.00 in0.0 mm 0.00 in/hr0.0 mm/hr 0.00 in0.0 mm
12:13 AM 29.8°F-1.2°C 18.6°F-7.4°C 63% 14.3 mph WNW23.0 kmh WNW 27.1 mph43.6 kmh 28.76 in973.9 mb 0.00 in0.0 mm 0.00 in/hr0.0 mm/hr 0.00 in0.0 mm
12:07 AM 30.0°F-1.1°C 18.8°F-7.3°C 63% 19.5 mph WNW31.4 kmh WNW 32.0 mph51.5 kmh 28.76 in973.9 mb 0.00 in0.0 mm 0.00 in/hr0.0 mm/hr 0.00 in0.0 mm
12:02 AM 30.2°F-1.0°C 19.4°F-7.0°C 64% 17.6 mph WNW28.3 kmh WNW 32.0 mph51.5 kmh 28.76 in973.9 mb 0.00 in0.0 mm 0.00 in/hr0.0 mm/hr 0.00 in0.0 mm